sensor_id;sensor_type;location;lat;lon;timestamp;pressure;altitude;pressure_sealevel;temperature;humidity
64827;BME280;51265;53.972;12.286;2023-05-12T00:00:34;101161.50;;;10.76;80.55
64827;BME280;51265;53.972;12.286;2023-05-12T00:03:00;101164.16;;;10.86;80.63
64827;BME280;51265;53.972;12.286;2023-05-12T00:05:29;101159.78;;;10.85;80.54
64827;BME280;51265;53.972;12.286;2023-05-12T00:07:55;101159.22;;;10.88;80.33
64827;BME280;51265;53.972;12.286;2023-05-12T00:10:22;101152.53;;;10.94;80.12
64827;BME280;51265;53.972;12.286;2023-05-12T00:12:48;101152.53;;;10.94;79.94
64827;BME280;51265;53.972;12.286;2023-05-12T00:15:15;101152.00;;;10.92;79.92
64827;BME280;51265;53.972;12.286;2023-05-12T00:17:41;101149.00;;;10.89;80.03
64827;BME280;51265;53.972;12.286;2023-05-12T00:20:08;101158.53;;;11.02;79.88
64827;BME280;51265;53.972;12.286;2023-05-12T00:22:35;101153.28;;;11.05;79.69
64827;BME280;51265;53.972;12.286;2023-05-12T00:25:01;101147.53;;;11.02;79.54
64827;BME280;51265;53.972;12.286;2023-05-12T00:27:27;101151.44;;;10.95;79.29
64827;BME280;51265;53.972;12.286;2023-05-12T00:29:57;101151.16;;;10.97;79.63
64827;BME280;51265;53.972;12.286;2023-05-12T00:32:25;101151.50;;;10.85;79.42
64827;BME280;51265;53.972;12.286;2023-05-12T00:34:52;101148.25;;;10.78;79.77
64827;BME280;51265;53.972;12.286;2023-05-12T00:37:35;101156.56;;;10.73;79.88
64827;BME280;51265;53.972;12.286;2023-05-12T00:40:01;101159.06;;;10.75;80.26
64827;BME280;51265;53.972;12.286;2023-05-12T00:42:28;101160.94;;;10.79;80.19
64827;BME280;51265;53.972;12.286;2023-05-12T00:44:54;101157.31;;;10.84;80.04
64827;BME280;51265;53.972;12.286;2023-05-12T00:47:21;101158.19;;;10.79;80.02
64827;BME280;51265;53.972;12.286;2023-05-12T00:49:50;101154.31;;;10.80;80.04
64827;BME280;51265;53.972;12.286;2023-05-12T00:52:16;101156.16;;;10.90;79.61
64827;BME280;51265;53.972;12.286;2023-05-12T00:54:43;101153.13;;;10.91;79.50
64827;BME280;51265;53.972;12.286;2023-05-12T00:57:11;101149.31;;;10.82;79.75
64827;BME280;51265;53.972;12.286;2023-05-12T00:59:38;101149.41;;;10.72;79.86
64827;BME280;51265;53.972;12.286;2023-05-12T01:02:05;101151.13;;;10.63;80.22
64827;BME280;51265;53.972;12.286;2023-05-12T01:04:34;101155.03;;;10.57;80.88
64827;BME280;51265;53.972;12.286;2023-05-12T01:07:08;101163.88;;;10.54;81.16
64827;BME280;51265;53.972;12.286;2023-05-12T01:09:36;101164.19;;;10.47;81.59
64827;BME280;51265;53.972;12.286;2023-05-12T01:12:03;101157.16;;;10.15;82.09
64827;BME280;51265;53.972;12.286;2023-05-12T01:14:31;101166.91;;;9.92;83.08
64827;BME280;51265;53.972;12.286;2023-05-12T01:17:00;101175.16;;;9.92;84.00
64827;BME280;51265;53.972;12.286;2023-05-12T01:19:51;101183.34;;;10.13;83.80
64827;BME280;51265;53.972;12.286;2023-05-12T01:22:19;101181.69;;;10.07;83.52
64827;BME280;51265;53.972;12.286;2023-05-12T01:24:58;101179.28;;;9.95;83.76
64827;BME280;51265;53.972;12.286;2023-05-12T01:27:33;101184.53;;;9.86;84.43
64827;BME280;51265;53.972;12.286;2023-05-12T01:30:02;101186.16;;;9.92;84.81
64827;BME280;51265;53.972;12.286;2023-05-12T01:32:33;101183.44;;;9.87;84.87
64827;BME280;51265;53.972;12.286;2023-05-12T01:35:00;101185.63;;;9.85;85.08
64827;BME280;51265;53.972;12.286;2023-05-12T01:37:28;101182.91;;;9.80;85.63
64827;BME280;51265;53.972;12.286;2023-05-12T01:39:56;101183.47;;;9.77;85.55
64827;BME280;51265;53.972;12.286;2023-05-12T01:42:22;101183.47;;;9.72;86.05
64827;BME280;51265;53.972;12.286;2023-05-12T01:44:49;101186.25;;;9.67;86.19
64827;BME280;51265;53.972;12.286;2023-05-12T01:47:16;101177.47;;;9.60;86.39
64827;BME280;51265;53.972;12.286;2023-05-12T01:49:50;101186.53;;;9.55;87.04
64827;BME280;51265;53.972;12.286;2023-05-12T01:52:16;101181.88;;;9.56;87.44
64827;BME280;51265;53.972;12.286;2023-05-12T01:54:42;101191.75;;;9.57;87.60
64827;BME280;51265;53.972;12.286;2023-05-12T01:57:10;101191.25;;;9.50;87.73
64827;BME280;51265;53.972;12.286;2023-05-12T01:59:38;101198.94;;;9.42;87.65
64827;BME280;51265;53.972;12.286;2023-05-12T02:02:06;101208.03;;;9.38;88.19
64827;BME280;51265;53.972;12.286;2023-05-12T02:04:34;101206.63;;;9.35;88.53
64827;BME280;51265;53.972;12.286;2023-05-12T02:07:01;101204.47;;;9.32;88.70
64827;BME280;51265;53.972;12.286;2023-05-12T02:09:28;101208.28;;;9.31;89.12
64827;BME280;51265;53.972;12.286;2023-05-12T02:11:59;101206.66;;;9.30;88.66
64827;BME280;51265;53.972;12.286;2023-05-12T02:14:26;101205.56;;;9.26;89.11
64827;BME280;51265;53.972;12.286;2023-05-12T02:16:53;101206.91;;;9.23;89.29
64827;BME280;51265;53.972;12.286;2023-05-12T02:19:23;101206.09;;;9.23;89.56
64827;BME280;51265;53.972;12.286;2023-05-12T02:21:49;101214.91;;;9.25;89.59
64827;BME280;51265;53.972;12.286;2023-05-12T02:24:16;101218.75;;;9.24;89.20
64827;BME280;51265;53.972;12.286;2023-05-12T02:26:43;101208.59;;;9.25;89.12
64827;BME280;51265;53.972;12.286;2023-05-12T02:29:10;101216.56;;;9.16;89.09
64827;BME280;51265;53.972;12.286;2023-05-12T02:31:37;101210.22;;;9.05;89.04
64827;BME280;51265;53.972;12.286;2023-05-12T02:34:14;101209.41;;;9.00;89.15
64827;BME280;51265;53.972;12.286;2023-05-12T02:36:40;101217.38;;;8.91;89.58
64827;BME280;51265;53.972;12.286;2023-05-12T02:39:07;101216.00;;;8.88;90.02
64827;BME280;51265;53.972;12.286;2023-05-12T02:41:33;101217.63;;;8.79;90.35
64827;BME280;51265;53.972;12.286;2023-05-12T02:44:00;101217.88;;;8.78;90.46
64827;BME280;51265;53.972;12.286;2023-05-12T02:46:26;101213.78;;;8.75;90.50
64827;BME280;51265;53.972;12.286;2023-05-12T02:48:53;101215.94;;;8.68;91.03
64827;BME280;51265;53.972;12.286;2023-05-12T02:51:19;101216.25;;;8.71;91.00
64827;BME280;51265;53.972;12.286;2023-05-12T02:53:46;101223.94;;;8.75;91.81
64827;BME280;51265;53.972;12.286;2023-05-12T02:56:12;101219.81;;;8.72;91.24
64827;BME280;51265;53.972;12.286;2023-05-12T02:58:38;101225.31;;;8.77;91.22
64827;BME280;51265;53.972;12.286;2023-05-12T03:01:05;101216.53;;;8.75;91.34
64827;BME280;51265;53.972;12.286;2023-05-12T03:03:32;101215.94;;;8.68;91.68
64827;BME280;51265;53.972;12.286;2023-05-12T03:05:58;101212.66;;;8.66;91.68
64827;BME280;51265;53.972;12.286;2023-05-12T03:08:25;101215.66;;;8.59;91.94
64827;BME280;51265;53.972;12.286;2023-05-12T03:10:51;101216.47;;;8.55;92.19
64827;BME280;51265;53.972;12.286;2023-05-12T03:13:19;101223.88;;;8.49;92.05
64827;BME280;51265;53.972;12.286;2023-05-12T03:15:46;101215.91;;;8.53;92.55
64827;BME280;51265;53.972;12.286;2023-05-12T03:18:12;101224.13;;;8.53;92.92
64827;BME280;51265;53.972;12.286;2023-05-12T03:20:39;101222.53;;;8.62;92.33
64827;BME280;51265;53.972;12.286;2023-05-12T03:23:05;101221.09;;;8.44;92.54
64827;BME280;51265;53.972;12.286;2023-05-12T03:25:32;101223.00;;;8.38;92.64
64827;BME280;51265;53.972;12.286;2023-05-12T03:28:06;101229.09;;;8.45;93.52
64827;BME280;51265;53.972;12.286;2023-05-12T03:30:32;101221.69;;;8.51;93.26
64827;BME280;51265;53.972;12.286;2023-05-12T03:32:59;101224.13;;;8.42;93.13
64827;BME280;51265;53.972;12.286;2023-05-12T03:35:25;101219.16;;;8.39;93.25
64827;BME280;51265;53.972;12.286;2023-05-12T03:37:52;101227.97;;;8.41;93.47
64827;BME280;51265;53.972;12.286;2023-05-12T03:40:18;101237.88;;;8.53;93.37
64827;BME280;51265;53.972;12.286;2023-05-12T03:42:46;101231.31;;;8.54;93.48
64827;BME280;51265;53.972;12.286;2023-05-12T03:45:12;101230.50;;;8.63;92.74
64827;BME280;51265;53.972;12.286;2023-05-12T03:47:38;101237.34;;;8.61;92.43
64827;BME280;51265;53.972;12.286;2023-05-12T03:50:06;101232.94;;;8.55;92.95
64827;BME280;51265;53.972;12.286;2023-05-12T03:52:33;101233.81;;;8.65;93.19
64827;BME280;51265;53.972;12.286;2023-05-12T03:55:01;101234.91;;;8.69;92.88
64827;BME280;51265;53.972;12.286;2023-05-12T03:57:27;101234.09;;;8.74;92.83
64827;BME280;51265;53.972;12.286;2023-05-12T03:59:54;101235.75;;;8.70;92.45
64827;BME280;51265;53.972;12.286;2023-05-12T04:02:20;101236.84;;;8.74;92.85
64827;BME280;51265;53.972;12.286;2023-05-12T04:04:46;101244.53;;;8.77;92.74
64827;BME280;51265;53.972;12.286;2023-05-12T04:07:14;101246.19;;;8.93;92.68
64827;BME280;51265;53.972;12.286;2023-05-12T04:09:40;101237.44;;;8.91;92.12
64827;BME280;51265;53.972;12.286;2023-05-12T04:12:06;101240.72;;;8.93;91.95
64827;BME280;51265;53.972;12.286;2023-05-12T04:14:33;101248.69;;;9.05;91.77
64827;BME280;51265;53.972;12.286;2023-05-12T04:17:00;101249.53;;;9.16;91.51
64827;BME280;51265;53.972;12.286;2023-05-12T04:19:26;101248.16;;;9.29;90.70
64827;BME280;51265;53.972;12.286;2023-05-12T04:21:56;101250.63;;;9.30;90.76
64827;BME280;51265;53.972;12.286;2023-05-12T04:24:23;101252.84;;;9.38;90.19
64827;BME280;51265;53.972;12.286;2023-05-12T04:26:50;101261.59;;;9.40;90.25
64827;BME280;51265;53.972;12.286;2023-05-12T04:29:17;101266.03;;;9.41;90.09
64827;BME280;51265;53.972;12.286;2023-05-12T04:31:43;101270.44;;;9.42;90.55
64827;BME280;51265;53.972;12.286;2023-05-12T04:34:10;101274.25;;;9.52;90.81
64827;BME280;51265;53.972;12.286;2023-05-12T04:36:36;101278.69;;;9.58;90.94
64827;BME280;51265;53.972;12.286;2023-05-12T04:39:04;101282.50;;;9.67;90.75
64827;BME280;51265;53.972;12.286;2023-05-12T04:41:30;101283.59;;;9.76;90.41
64827;BME280;51265;53.972;12.286;2023-05-12T04:43:57;101286.31;;;9.86;90.25
64827;BME280;51265;53.972;12.286;2023-05-12T04:46:23;101279.16;;;9.95;89.86
64827;BME280;51265;53.972;12.286;2023-05-12T04:48:49;101283.78;;;10.10;89.22
64827;BME280;51265;53.972;12.286;2023-05-12T04:51:16;101277.72;;;10.18;88.28
64827;BME280;51265;53.972;12.286;2023-05-12T04:53:42;101273.53;;;10.36;87.46
64827;BME280;51265;53.972;12.286;2023-05-12T04:56:09;101280.63;;;10.58;86.74
64827;BME280;51265;53.972;12.286;2023-05-12T04:58:37;101280.28;;;10.69;85.68
64827;BME280;51265;53.972;12.286;2023-05-12T05:01:04;101276.09;;;10.77;84.77
64827;BME280;51265;53.972;12.286;2023-05-12T05:03:32;101278.00;;;10.87;84.74
64827;BME280;51265;53.972;12.286;2023-05-12T05:05:59;101279.25;;;11.05;84.25
64827;BME280;51265;53.972;12.286;2023-05-12T05:08:26;101264.88;;;11.13;83.29
64827;BME280;51265;53.972;12.286;2023-05-12T05:10:52;101264.72;;;11.33;82.39
64827;BME280;51265;53.972;12.286;2023-05-12T05:13:19;101265.69;;;11.47;81.44
64827;BME280;51265;53.972;12.286;2023-05-12T05:15:52;101260.63;;;11.60;80.78
64827;BME280;51265;53.972;12.286;2023-05-12T05:18:19;101257.75;;;11.70;80.14
64827;BME280;51265;53.972;12.286;2023-05-12T05:20:46;101253.22;;;11.84;79.51
64827;BME280;51265;53.972;12.286;2023-05-12T05:23:13;101248.19;;;11.91;78.18
64827;BME280;51265;53.972;12.286;2023-05-12T05:25:41;101233.72;;;12.00;77.45
64827;BME280;51265;53.972;12.286;2023-05-12T05:28:07;101233.63;;;12.10;76.40
64827;BME280;51265;53.972;12.286;2023-05-12T05:30:37;101238.44;;;12.23;76.35
64827;BME280;51265;53.972;12.286;2023-05-12T05:33:05;101236.41;;;12.29;76.07
64827;BME280;51265;53.972;12.286;2023-05-12T05:35:31;101239.88;;;12.39;75.88
64827;BME280;51265;53.972;12.286;2023-05-12T05:37:58;101241.03;;;12.57;75.89
64827;BME280;51265;53.972;12.286;2023-05-12T05:40:25;101239.19;;;12.71;74.92
64827;BME280;51265;53.972;12.286;2023-05-12T05:42:52;101231.47;;;12.87;74.67
64827;BME280;51265;53.972;12.286;2023-05-12T05:45:18;101234.41;;;12.96;73.85
64827;BME280;51265;53.972;12.286;2023-05-12T05:47:45;101234.81;;;13.03;73.66
64827;BME280;51265;53.972;12.286;2023-05-12T05:50:12;101237.34;;;13.18;73.37
64827;BME280;51265;53.972;12.286;2023-05-12T05:52:40;101236.38;;;13.28;73.61
64827;BME280;51265;53.972;12.286;2023-05-12T05:55:08;101236.66;;;13.45;72.61
64827;BME280;51265;53.972;12.286;2023-05-12T05:57:34;101222.53;;;13.47;71.83
64827;BME280;51265;53.972;12.286;2023-05-12T06:00:03;101228.78;;;13.53;72.05
64827;BME280;51265;53.972;12.286;2023-05-12T06:02:40;101225.22;;;13.66;71.81
64827;BME280;51265;53.972;12.286;2023-05-12T06:05:07;101233.44;;;13.71;71.17
64827;BME280;51265;53.972;12.286;2023-05-12T06:07:35;101230.16;;;13.83;70.70
64827;BME280;51265;53.972;12.286;2023-05-12T06:10:04;101223.63;;;13.92;70.32
64827;BME280;51265;53.972;12.286;2023-05-12T06:12:32;101227.22;;;14.07;70.25
64827;BME280;51265;53.972;12.286;2023-05-12T06:14:59;101222.38;;;14.26;69.27
64827;BME280;51265;53.972;12.286;2023-05-12T06:17:25;101221.56;;;14.39;68.80
64827;BME280;51265;53.972;12.286;2023-05-12T06:19:52;101213.84;;;14.50;68.77
64827;BME280;51265;53.972;12.286;2023-05-12T06:22:18;101211.69;;;14.61;68.36
64827;BME280;51265;53.972;12.286;2023-05-12T06:24:45;101215.13;;;14.80;67.97
64827;BME280;51265;53.972;12.286;2023-05-12T06:27:11;101214.25;;;14.93;67.19
64827;BME280;51265;53.972;12.286;2023-05-12T06:29:38;101206.81;;;15.03;66.85
64827;BME280;51265;53.972;12.286;2023-05-12T06:32:04;101199.25;;;15.17;66.29
64827;BME280;51265;53.972;12.286;2023-05-12T06:34:31;101200.31;;;15.30;66.16
64827;BME280;51265;53.972;12.286;2023-05-12T06:36:57;101206.63;;;15.44;65.53
64827;BME280;51265;53.972;12.286;2023-05-12T06:39:24;101203.56;;;15.54;65.36
64827;BME280;51265;53.972;12.286;2023-05-12T06:41:50;101203.19;;;15.69;64.96
64827;BME280;51265;53.972;12.286;2023-05-12T06:44:20;101199.44;;;15.74;65.04
64827;BME280;51265;53.972;12.286;2023-05-12T06:46:51;101199.44;;;15.74;64.83
64827;BME280;51265;53.972;12.286;2023-05-12T06:49:19;101210.28;;;15.84;64.97
64827;BME280;51265;53.972;12.286;2023-05-12T06:51:45;101213.63;;;16.04;65.70
64827;BME280;51265;53.972;12.286;2023-05-12T06:54:12;101204.47;;;16.03;64.62
64827;BME280;51265;53.972;12.286;2023-05-12T06:56:38;101191.25;;;16.09;64.20
64827;BME280;51265;53.972;12.286;2023-05-12T06:59:05;101202.72;;;16.25;63.82
64827;BME280;51265;53.972;12.286;2023-05-12T07:01:31;101193.44;;;16.29;63.74
64827;BME280;51265;53.972;12.286;2023-05-12T07:03:58;101206.22;;;16.39;64.13
64827;BME280;51265;53.972;12.286;2023-05-12T07:06:25;101195.59;;;16.50;63.54
64827;BME280;51265;53.972;12.286;2023-05-12T07:08:53;101192.81;;;16.50;63.35
64827;BME280;51265;53.972;12.286;2023-05-12T07:11:20;101199.06;;;16.64;63.31
64827;BME280;51265;53.972;12.286;2023-05-12T07:13:46;101189.41;;;16.70;62.46
64827;BME280;51265;53.972;12.286;2023-05-12T07:16:14;101187.00;;;16.77;62.23
64827;BME280;51265;53.972;12.286;2023-05-12T07:18:41;101192.38;;;17.00;62.13
64827;BME280;51265;53.972;12.286;2023-05-12T07:21:08;101203.00;;;17.15;61.96
64827;BME280;51265;53.972;12.286;2023-05-12T07:23:36;101192.34;;;17.26;61.25
64827;BME280;51265;53.972;12.286;2023-05-12T07:26:04;101181.69;;;17.28;60.43
64827;BME280;51265;53.972;12.286;2023-05-12T07:28:31;101173.50;;;17.31;60.04
64827;BME280;51265;53.972;12.286;2023-05-12T07:31:08;101178.22;;;17.48;60.08
64827;BME280;51265;53.972;12.286;2023-05-12T07:33:44;101178.19;;;17.57;59.96
64827;BME280;51265;53.972;12.286;2023-05-12T07:36:17;101176.53;;;17.64;59.91
64827;BME280;51265;53.972;12.286;2023-05-12T07:38:43;101180.59;;;17.67;60.64
64827;BME280;51265;53.972;12.286;2023-05-12T07:41:10;101182.56;;;17.75;60.24
64827;BME280;51265;53.972;12.286;2023-05-12T07:43:36;101179.88;;;17.87;60.14
64827;BME280;51265;53.972;12.286;2023-05-12T07:46:02;101172.84;;;17.90;59.45
64827;BME280;51265;53.972;12.286;2023-05-12T07:48:29;101179.13;;;18.08;59.49
64827;BME280;51265;53.972;12.286;2023-05-12T07:50:55;101181.06;;;18.16;59.31
64827;BME280;51265;53.972;12.286;2023-05-12T07:53:22;101178.88;;;18.22;59.14
64827;BME280;51265;53.972;12.286;2023-05-12T07:55:48;101185.94;;;18.49;58.95
64827;BME280;51265;53.972;12.286;2023-05-12T07:58:15;101182.19;;;18.74;58.65
64827;BME280;51265;53.972;12.286;2023-05-12T08:00:41;101171.53;;;18.88;57.69
64827;BME280;51265;53.972;12.286;2023-05-12T08:03:08;101166.69;;;18.98;57.64
64827;BME280;51265;53.972;12.286;2023-05-12T08:05:34;101159.75;;;19.04;56.89
64827;BME280;51265;53.972;12.286;2023-05-12T08:08:00;101139.25;;;19.00;55.59
64827;BME280;51265;53.972;12.286;2023-05-12T08:10:27;101137.69;;;19.11;55.69
64827;BME280;51265;53.972;12.286;2023-05-12T08:12:55;101135.34;;;19.13;55.64
64827;BME280;51265;53.972;12.286;2023-05-12T08:15:21;101125.81;;;19.14;54.93
64827;BME280;51265;53.972;12.286;2023-05-12T08:17:48;101128.13;;;19.12;54.86
64827;BME280;51265;53.972;12.286;2023-05-12T08:20:14;101124.19;;;19.13;54.98
64827;BME280;51265;53.972;12.286;2023-05-12T08:22:40;101140.94;;;19.13;55.69
64827;BME280;51265;53.972;12.286;2023-05-12T08:25:07;101133.78;;;19.36;54.76
64827;BME280;51265;53.972;12.286;2023-05-12T08:27:34;101136.59;;;19.49;54.30
64827;BME280;51265;53.972;12.286;2023-05-12T08:30:00;101147.13;;;19.76;54.72
64827;BME280;51265;53.972;12.286;2023-05-12T08:32:26;101148.66;;;19.98;54.30
64827;BME280;51265;53.972;12.286;2023-05-12T08:34:53;101135.94;;;20.01;53.41
64827;BME280;51265;53.972;12.286;2023-05-12T08:37:19;101123.03;;;19.96;53.27
64827;BME280;51265;53.972;12.286;2023-05-12T08:39:46;101140.47;;;20.18;53.04
64827;BME280;51265;53.972;12.286;2023-05-12T08:42:35;101137.19;;;20.40;53.08
64827;BME280;51265;53.972;12.286;2023-05-12T08:45:03;101147.22;;;20.53;53.33
64827;BME280;51265;53.972;12.286;2023-05-12T08:47:31;101127.97;;;20.52;52.09
64827;BME280;51265;53.972;12.286;2023-05-12T08:50:00;101123.00;;;20.73;52.29
64827;BME280;51265;53.972;12.286;2023-05-12T08:52:28;101117.34;;;20.85;51.79
64827;BME280;51265;53.972;12.286;2023-05-12T08:54:55;101101.88;;;21.04;50.17
64827;BME280;51265;53.972;12.286;2023-05-12T08:57:22;101069.72;;;21.13;48.35
64827;BME280;51265;53.972;12.286;2023-05-12T08:59:52;101071.97;;;21.08;48.61
64827;BME280;51265;53.972;12.286;2023-05-12T09:02:21;101074.72;;;21.20;48.81
64827;BME280;51265;53.972;12.286;2023-05-12T09:04:51;101082.59;;;21.62;48.26
64827;BME280;51265;53.972;12.286;2023-05-12T09:07:20;101071.38;;;21.62;48.33
64827;BME280;51265;53.972;12.286;2023-05-12T09:09:55;101081.41;;;21.63;48.54
64827;BME280;51265;53.972;12.286;2023-05-12T09:12:24;101088.09;;;21.74;48.44
64827;BME280;51265;53.972;12.286;2023-05-12T09:15:05;101093.22;;;22.04;48.39
64827;BME280;51265;53.972;12.286;2023-05-12T09:17:35;101102.78;;;22.19;48.51
64827;BME280;51265;53.972;12.286;2023-05-12T09:20:01;101078.50;;;22.26;46.86
64827;BME280;51265;53.972;12.286;2023-05-12T09:22:30;101070.25;;;22.33;47.09
64827;BME280;51265;53.972;12.286;2023-05-12T09:24:56;101081.97;;;22.39;47.13
64827;BME280;51265;53.972;12.286;2023-05-12T09:27:24;101063.97;;;22.40;46.98
64827;BME280;51265;53.972;12.286;2023-05-12T09:29:51;101064.34;;;22.58;46.27
64827;BME280;51265;53.972;12.286;2023-05-12T09:32:31;101076.72;;;22.76;46.90
64827;BME280;51265;53.972;12.286;2023-05-12T09:35:05;101062.53;;;22.69;46.16
64827;BME280;51265;53.972;12.286;2023-05-12T09:37:33;101050.59;;;22.92;45.71
64827;BME280;51265;53.972;12.286;2023-05-12T09:40:01;101069.22;;;23.00;45.49
64827;BME280;51265;53.972;12.286;2023-05-12T09:42:29;101053.97;;;23.01;45.44
64827;BME280;51265;53.972;12.286;2023-05-12T09:47:37;101046.94;;;23.33;44.26
64827;BME280;51265;53.972;12.286;2023-05-12T09:50:06;101049.97;;;23.48;44.85
64827;BME280;51265;53.972;12.286;2023-05-12T09:52:37;101020.84;;;23.36;43.95
64827;BME280;51265;53.972;12.286;2023-05-12T09:55:05;101035.13;;;23.24;44.02
64827;BME280;51265;53.972;12.286;2023-05-12T09:57:41;101059.72;;;23.54;45.36
64827;BME280;51265;53.972;12.286;2023-05-12T10:00:12;101028.88;;;23.34;44.24
64827;BME280;51265;53.972;12.286;2023-05-12T10:02:40;101031.53;;;23.50;44.34
64827;BME280;51265;53.972;12.286;2023-05-12T10:05:18;101037.22;;;23.54;44.23
64827;BME280;51265;53.972;12.286;2023-05-12T10:07:50;101021.66;;;23.60;43.37
64827;BME280;51265;53.972;12.286;2023-05-12T10:10:20;101009.53;;;23.56;43.17
64827;BME280;51265;53.972;12.286;2023-05-12T10:12:48;101022.22;;;23.69;43.67
64827;BME280;51265;53.972;12.286;2023-05-12T10:15:15;101019.94;;;23.78;43.08
64827;BME280;51265;53.972;12.286;2023-05-12T10:17:43;101054.22;;;24.14;43.57
64827;BME280;51265;53.972;12.286;2023-05-12T10:20:10;101047.13;;;24.27;43.32
64827;BME280;51265;53.972;12.286;2023-05-12T10:22:39;101014.00;;;24.14;42.14
64827;BME280;51265;53.972;12.286;2023-05-12T10:25:06;100998.69;;;24.11;41.83
64827;BME280;51265;53.972;12.286;2023-05-12T10:27:36;101026.34;;;24.35;42.17
64827;BME280;51265;53.972;12.286;2023-05-12T10:30:03;101006.22;;;24.33;42.04
64827;BME280;51265;53.972;12.286;2023-05-12T10:32:31;101023.88;;;24.30;42.48
64827;BME280;51265;53.972;12.286;2023-05-12T10:35:09;101047.38;;;24.42;43.13
64827;BME280;51265;53.972;12.286;2023-05-12T10:37:36;101046.41;;;24.64;42.96
64827;BME280;51265;53.972;12.286;2023-05-12T10:40:03;101030.19;;;24.88;41.71
64827;BME280;51265;53.972;12.286;2023-05-12T10:42:38;100999.59;;;24.90;40.36
64827;BME280;51265;53.972;12.286;2023-05-12T10:45:15;100993.25;;;24.96;40.51
64827;BME280;51265;53.972;12.286;2023-05-12T10:47:45;101005.53;;;25.18;40.18
64827;BME280;51265;53.972;12.286;2023-05-12T10:50:12;101008.97;;;25.42;39.81
64827;BME280;51265;53.972;12.286;2023-05-12T10:52:51;100978.25;;;25.33;39.15
64827;BME280;51265;53.972;12.286;2023-05-12T10:55:32;100987.66;;;25.48;39.67
64827;BME280;51265;53.972;12.286;2023-05-12T10:58:08;100995.78;;;25.60;39.52
64827;BME280;51265;53.972;12.286;2023-05-12T11:00:48;101002.97;;;26.16;38.34
64827;BME280;51265;53.972;12.286;2023-05-12T11:03:16;100993.50;;;26.71;38.04
64827;BME280;51265;53.972;12.286;2023-05-12T11:06:01;100982.22;;;26.74;38.15
64827;BME280;51265;53.972;12.286;2023-05-12T11:08:28;100955.97;;;26.56;37.58
64827;BME280;51265;53.972;12.286;2023-05-12T11:10:56;100944.16;;;26.32;37.12
64827;BME280;51265;53.972;12.286;2023-05-12T11:13:23;100957.88;;;26.38;37.58
64827;BME280;51265;53.972;12.286;2023-05-12T11:15:50;100969.34;;;26.84;36.81
64827;BME280;51265;53.972;12.286;2023-05-12T11:18:20;100928.97;;;27.05;35.00
64827;BME280;51265;53.972;12.286;2023-05-12T11:20:47;100915.25;;;27.14;34.23
64827;BME280;51265;53.972;12.286;2023-05-12T11:23:26;100927.34;;;27.25;35.50
64827;BME280;51265;53.972;12.286;2023-05-12T11:25:55;100935.03;;;27.11;36.18
64827;BME280;51265;53.972;12.286;2023-05-12T11:28:21;100920.09;;;26.92;35.75
64827;BME280;51265;53.972;12.286;2023-05-12T11:30:51;100923.28;;;26.87;35.42
64827;BME280;51265;53.972;12.286;2023-05-12T11:33:19;100918.47;;;27.09;35.24
64827;BME280;51265;53.972;12.286;2023-05-12T11:35:47;100929.69;;;27.70;33.91
64827;BME280;51265;53.972;12.286;2023-05-12T11:38:16;100901.44;;;27.48;33.96
64827;BME280;51265;53.972;12.286;2023-05-12T11:40:43;100919.91;;;27.96;33.79
64827;BME280;51265;53.972;12.286;2023-05-12T11:43:10;100906.09;;;28.09;33.13
64827;BME280;51265;53.972;12.286;2023-05-12T11:45:37;100904.81;;;28.20;33.11
64827;BME280;51265;53.972;12.286;2023-05-12T11:48:13;100924.13;;;28.47;33.77
64827;BME280;51265;53.972;12.286;2023-05-12T11:50:44;100910.91;;;28.15;33.48
64827;BME280;51265;53.972;12.286;2023-05-12T11:53:15;100897.34;;;27.82;33.63
64827;BME280;51265;53.972;12.286;2023-05-12T11:55:53;100869.22;;;27.17;33.74
64827;BME280;51265;53.972;12.286;2023-05-12T11:58:24;100923.31;;;27.26;35.07
64827;BME280;51265;53.972;12.286;2023-05-12T12:00:56;100916.06;;;27.18;34.69
64827;BME280;51265;53.972;12.286;2023-05-12T12:03:23;100958.81;;;27.63;35.17
64827;BME280;51265;53.972;12.286;2023-05-12T12:05:58;100951.44;;;28.01;34.53
64827;BME280;51265;53.972;12.286;2023-05-12T12:08:26;100944.13;;;28.04;34.22
64827;BME280;51265;53.972;12.286;2023-05-12T12:10:52;100947.66;;;28.29;33.40
64827;BME280;51265;53.972;12.286;2023-05-12T12:13:22;100943.06;;;28.61;32.62
64827;BME280;51265;53.972;12.286;2023-05-12T12:15:50;100944.78;;;28.40;33.24
64827;BME280;51265;53.972;12.286;2023-05-12T12:18:17;100972.94;;;28.72;34.08
64827;BME280;51265;53.972;12.286;2023-05-12T12:20:45;100958.72;;;29.32;32.63
64827;BME280;51265;53.972;12.286;2023-05-12T12:23:12;100993.88;;;29.83;32.76
64827;BME280;51265;53.972;12.286;2023-05-12T12:25:38;100941.72;;;29.28;32.49
64827;BME280;51265;53.972;12.286;2023-05-12T12:28:05;100915.53;;;28.58;32.84
64827;BME280;51265;53.972;12.286;2023-05-12T12:30:31;100971.53;;;28.28;34.87
64827;BME280;51265;53.972;12.286;2023-05-12T12:32:57;100955.41;;;28.18;33.93
64827;BME280;51265;53.972;12.286;2023-05-12T12:35:24;100981.25;;;28.27;35.22
64827;BME280;51265;53.972;12.286;2023-05-12T12:37:50;100942.63;;;27.78;33.97
64827;BME280;51265;53.972;12.286;2023-05-12T12:40:18;100928.00;;;27.94;32.87
64827;BME280;51265;53.972;12.286;2023-05-12T12:42:45;100930.28;;;28.24;32.20
64827;BME280;51265;53.972;12.286;2023-05-12T12:45:11;100896.28;;;28.27;32.30
64827;BME280;51265;53.972;12.286;2023-05-12T12:47:38;100911.22;;;28.39;31.79
64827;BME280;51265;53.972;12.286;2023-05-12T12:50:06;100859.53;;;26.90;33.08